Qm Of London — ZCTD7 — position and weather

sailwx.info

Track history (hours):
 
Tides and Currents Weather Stations Pressure Air Temp Water Temp Dewpoint Dewpoint Depression Visibility Wind Speed Wind Dir Waves Ship Positions

Qm Of London

Last reported at 2014-Jul-24 17:33 UTC. Time now 2014-Jul-29 12:55 UTC.
Position N 42°57' E 007°02'.

Length 50 m; draft 2.6 m.

Type: Pleasure craft. MMSI: 319780000.

Date/timePositionNaut miles runAvg speedWind from/ knotsBaromVisibWave heightAir tempDewpointWater temp
2014-Jul-24 17:33N 42°57' E 007°02'1110.1
2014-Jul-24 16:31N 43°05' E 006°52'1011.0
2014-Jul-24 15:33N 43°12' E 006°43'2 1.9
2014-Jul-24 14:33N 43°13' E 006°40'0 0.0
2014-Jul-24 13:33N 43°13' E 006°40'0 0.0
2014-Jul-24 12:33N 43°13' E 006°40'0 0.0
2014-Jul-24 11:33N 43°13' E 006°40'0 0.0
2014-Jul-24 10:34N 43°13' E 006°40'4 4.2
2014-Jul-24 09:34N 43°17' E 006°41'3 2.9
2014-Jul-24 08:31N 43°16' E 006°37'0 0.0
2014-Jul-24 07:31N 43°16' E 006°37'0 0.0
2014-Jul-24 06:32N 43°16' E 006°37'0 0.0
2014-Jul-24 05:30N 43°16' E 006°37'0 0.0
2014-Jul-24 04:33N 43°16' E 006°37'0 0.0
2014-Jul-24 03:31N 43°16' E 006°37'0 0.0
2014-Jul-24 02:23N 43°16' E 006°37'0 0.0
2014-Jul-24 01:26N 43°16' E 006°37'0 0.0
2014-Jul-24 00:30N 43°16' E 006°37'0 0.0
2014-Jul-23 23:28N 43°16' E 006°37'0 0.0
2014-Jul-23 22:25N 43°16' E 006°37'0 0.0
2014-Jul-23 21:26N 43°16' E 006°37'0 0.0
2014-Jul-23 20:33N 43°16' E 006°37'0 0.0
2014-Jul-23 19:33N 43°16' E 006°37'0 0.0
2014-Jul-23 18:28N 43°16' E 006°37'0 0.0
2014-Jul-23 17:32N 43°16' E 006°37'0 0.0
2014-Jul-23 16:32N 43°16' E 006°37'0 0.0
2014-Jul-23 15:33N 43°16' E 006°37'10 9.5
2014-Jul-23 14:33N 43°22' E 006°49'1110.7
2014-Jul-23 13:33N 43°30' E 006°58'2 1.3
2014-Jul-23 12:26N 43°31' E 006°57'0 0.0
2014-Jul-23 11:33N 43°31' E 006°57'0 0.0
2014-Jul-23 10:33N 43°31' E 006°57'0 0.0
2014-Jul-23 09:28N 43°31' E 006°57'0 0.0
2014-Jul-23 08:32N 43°31' E 006°57'0 0.0
2014-Jul-23 07:32N 43°31' E 006°57'0 0.0
2014-Jul-23 06:33N 43°31' E 006°57'0 0.0
2014-Jul-23 05:31N 43°31' E 006°57'0 0.0
2014-Jul-23 04:31N 43°31' E 006°57'0 0.0
2014-Jul-23 03:29N 43°31' E 006°57'0 0.0
2014-Jul-23 02:33N 43°31' E 006°57'0 0.0
2014-Jul-23 01:33N 43°31' E 006°57'0 0.0
2014-Jul-23 00:28N 43°31' E 006°57'0 0.0
2014-Jul-22 23:29N 43°31' E 006°57'0 0.0
2014-Jul-22 22:32N 43°31' E 006°57'0 0.0
2014-Jul-22 21:33N 43°31' E 006°57'0 0.0
2014-Jul-22 20:31N 43°31' E 006°57'0 0.0
2014-Jul-22 19:28N 43°31' E 006°57'3 3.8
2014-Jul-22 18:33N 43°31' E 007°02'0 0.1
2014-Jul-22 15:31N 43°31' E 007°02'0 0.0
2014-Jul-22 14:20N 43°31' E 007°02'0 0.0
2014-Jul-22 12:21N 43°31' E 007°02'0 0.0
2014-Jul-22 11:04N 43°31' E 007°02'0 0.0
2014-Jul-22 10:26N 43°31' E 007°02'2 2.6
2014-Jul-22 09:33N 43°33' E 007°01'0 0.0
2014-Jul-22 08:33N 43°33' E 007°01'0 0.0
2014-Jul-22 07:31N 43°33' E 007°01'0 0.0
2014-Jul-22 06:32N 43°33' E 007°01'0 0.0
2014-Jul-22 05:32N 43°33' E 007°01'0 0.0
2014-Jul-22 04:27N 43°33' E 007°01'0 0.0
2014-Jul-22 03:31N 43°33' E 007°01'0 0.0
2014-Jul-22 02:31N 43°33' E 007°01'0 0.0
2014-Jul-22 01:23N 43°33' E 007°01'0 0.0
2014-Jul-22 00:33N 43°33' E 007°01'0 0.0
2014-Jul-21 23:33N 43°33' E 007°01'0 0.0
2014-Jul-21 22:31N 43°33' E 007°01'0 0.0
2014-Jul-21 21:32N 43°33' E 007°01'0 0.0
2014-Jul-21 20:32N 43°33' E 007°01'0 0.0
2014-Jul-21 20:18N 43°33' E 007°01'0 0.0
2014-Jul-21 19:33N 43°33' E 007°01'0 0.0
2014-Jul-21 18:25N 43°33' E 007°01'0 0.0
2014-Jul-21 17:29N 43°33' E 007°01'0 0.4
2014-Jul-21 16:28N 43°32' E 007°01'0 0.0
2014-Jul-21 15:28N 43°32' E 007°01'0 0.0
2014-Jul-21 14:26N 43°32' E 007°01'4 4.3
2014-Jul-21 13:34N 43°30' E 007°05'1211.7
2014-Jul-21 12:33N 43°39' E 007°15'3 3.2
2014-Jul-21 11:32N 43°42' E 007°17'0 0.0
2014-Jul-21 10:27N 43°42' E 007°17'0 0.0
2014-Jul-21 09:22N 43°42' E 007°17'0 0.0
2014-Jul-21 08:28N 43°42' E 007°17'0 0.0
2014-Jul-21 07:29N 43°42' E 007°17'0 0.0
2014-Jul-21 06:30N 43°42' E 007°17'0 0.0
2014-Jul-21 05:24N 43°42' E 007°17'0 0.0
2014-Jul-21 04:31N 43°42' E 007°17'0 0.0
2014-Jul-21 03:32N 43°42' E 007°17'0 0.0
2014-Jul-21 02:32N 43°42' E 007°17'0 0.0
2014-Jul-21 01:33N 43°42' E 007°17'0 0.0
2014-Jul-21 00:28N 43°42' E 007°17'0 0.0
2014-Jul-20 23:28N 43°42' E 007°17'0 0.0
2014-Jul-20 22:23N 43°42' E 007°17'0 0.0
2014-Jul-20 21:12N 43°42' E 007°17'0 0.0
2014-Jul-20 20:24N 43°42' E 007°17'0 0.0
2014-Jul-20 19:31N 43°42' E 007°17'0 0.0
2014-Jul-20 18:32N 43°42' E 007°17'0 0.0
2014-Jul-20 17:32N 43°42' E 007°17'0 0.0
2014-Jul-20 16:09N 43°42' E 007°17'0 0.0
2014-Jul-20 15:28N 43°42' E 007°17'0 0.0
2014-Jul-20 14:28N 43°42' E 007°17'0 0.0
2014-Jul-20 13:23N 43°42' E 007°17'0 0.0
2014-Jul-20 12:33N 43°42' E 007°17'2 2.0
2014-Jul-20 11:21N 43°42' E 007°20'0 0.0
2014-Jul-20 05:28N 43°42' E 007°20'0 0.0
2014-Jul-20 02:27N 43°42' E 007°20'0 0.0
2014-Jul-20 01:33N 43°42' E 007°20'0 0.0
2014-Jul-20 00:22N 43°42' E 007°20'0 0.0
2014-Jul-19 23:23N 43°42' E 007°20'0 0.0
2014-Jul-19 22:18N 43°42' E 007°20'0 0.0
2014-Jul-19 21:30N 43°42' E 007°20'0 0.0
2014-Jul-19 20:31N 43°42' E 007°20'0 0.0
2014-Jul-19 19:08N 43°42' E 007°20'0 0.0
2014-Jul-19 18:20N 43°42' E 007°20'0 0.0
2014-Jul-19 17:21N 43°42' E 007°20'0 0.0
2014-Jul-19 15:25N 43°42' E 007°20'0 0.0
2014-Jul-19 14:29N 43°42' E 007°20'3 3.7
2014-Jul-19 13:33N 43°39' E 007°18'5 5.2
2014-Jul-19 12:29N 43°39' E 007°11'0 0.0
2014-Jul-19 11:18N 43°39' E 007°11'0 0.0
2014-Jul-19 10:33N 43°39' E 007°11'0 0.0
2014-Jul-19 09:34N 43°39' E 007°11'6 5.4
2014-Jul-19 08:33N 43°39' E 007°18'7 2.4
2014-Jul-19 05:30N 43°44' E 007°25'0 0.0
2014-Jul-18 22:17N 43°44' E 007°25'0 0.0
2014-Jul-18 17:11N 43°44' E 007°25'0 0.0
2014-Jul-18 16:33N 43°44' E 007°25'0 0.0
2014-Jul-18 09:05N 43°44' E 007°25'0 0.0
2014-Jul-18 05:11N 43°44' E 007°26'4 5.6
2014-Jul-18 04:27N 43°41' E 007°29'1213.5
2014-Jul-18 03:33N 43°30' E 007°37'1413.7
2014-Jul-18 02:33N 43°18' E 007°46'1413.7
2014-Jul-18 01:34N 43°07' E 007°56'1413.6
2014-Jul-18 00:33N 42°55' E 008°05'1513.7
2014-Jul-17 23:26N 42°41' E 008°16'  
Track history (hours):
 
Tides and Currents Weather Stations Pressure Air Temp Water Temp Dewpoint Dewpoint Depression Visibility Wind Speed Wind Dir Waves Ship Positions

Qm Of London

Last reported at 2014-Jul-24 17:33 UTC. Time now 2014-Jul-29 12:55 UTC.
Position N 42°57' E 007°02'.

Length 50 m; draft 2.6 m.

Type: Pleasure craft. MMSI: 319780000.

Date/timePositionNaut miles runAvg speedWind from/ knotsBaromVisibWave heightAir tempDewpointWater temp
2014-Jul-24 17:33N 42°57' E 007°02'1110.1
2014-Jul-24 16:31N 43°05' E 006°52'1011.0
2014-Jul-24 15:33N 43°12' E 006°43'2 1.9
2014-Jul-24 14:33N 43°13' E 006°40'0 0.0
2014-Jul-24 13:33N 43°13' E 006°40'0 0.0
2014-Jul-24 12:33N 43°13' E 006°40'0 0.0
2014-Jul-24 11:33N 43°13' E 006°40'0 0.0
2014-Jul-24 10:34N 43°13' E 006°40'4 4.2
2014-Jul-24 09:34N 43°17' E 006°41'3 2.9
2014-Jul-24 08:31N 43°16' E 006°37'0 0.0
2014-Jul-24 07:31N 43°16' E 006°37'0 0.0
2014-Jul-24 06:32N 43°16' E 006°37'0 0.0
2014-Jul-24 05:30N 43°16' E 006°37'0 0.0
2014-Jul-24 04:33N 43°16' E 006°37'0 0.0
2014-Jul-24 03:31N 43°16' E 006°37'0 0.0
2014-Jul-24 02:23N 43°16' E 006°37'0 0.0
2014-Jul-24 01:26N 43°16' E 006°37'0 0.0
2014-Jul-24 00:30N 43°16' E 006°37'0 0.0
2014-Jul-23 23:28N 43°16' E 006°37'0 0.0
2014-Jul-23 22:25N 43°16' E 006°37'0 0.0
2014-Jul-23 21:26N 43°16' E 006°37'0 0.0
2014-Jul-23 20:33N 43°16' E 006°37'0 0.0
2014-Jul-23 19:33N 43°16' E 006°37'0 0.0
2014-Jul-23 18:28N 43°16' E 006°37'0 0.0
2014-Jul-23 17:32N 43°16' E 006°37'0 0.0
2014-Jul-23 16:32N 43°16' E 006°37'0 0.0
2014-Jul-23 15:33N 43°16' E 006°37'10 9.5
2014-Jul-23 14:33N 43°22' E 006°49'1110.7
2014-Jul-23 13:33N 43°30' E 006°58'2 1.3
2014-Jul-23 12:26N 43°31' E 006°57'0 0.0
2014-Jul-23 11:33N 43°31' E 006°57'0 0.0
2014-Jul-23 10:33N 43°31' E 006°57'0 0.0
2014-Jul-23 09:28N 43°31' E 006°57'0 0.0
2014-Jul-23 08:32N 43°31' E 006°57'0 0.0
2014-Jul-23 07:32N 43°31' E 006°57'0 0.0
2014-Jul-23 06:33N 43°31' E 006°57'0 0.0
2014-Jul-23 05:31N 43°31' E 006°57'0 0.0
2014-Jul-23 04:31N 43°31' E 006°57'0 0.0
2014-Jul-23 03:29N 43°31' E 006°57'0 0.0
2014-Jul-23 02:33N 43°31' E 006°57'0 0.0
2014-Jul-23 01:33N 43°31' E 006°57'0 0.0
2014-Jul-23 00:28N 43°31' E 006°57'0 0.0
2014-Jul-22 23:29N 43°31' E 006°57'0 0.0
2014-Jul-22 22:32N 43°31' E 006°57'0 0.0
2014-Jul-22 21:33N 43°31' E 006°57'0 0.0
2014-Jul-22 20:31N 43°31' E 006°57'0 0.0
2014-Jul-22 19:28N 43°31' E 006°57'3 3.8
2014-Jul-22 18:33N 43°31' E 007°02'0 0.1
2014-Jul-22 15:31N 43°31' E 007°02'0 0.0
2014-Jul-22 14:20N 43°31' E 007°02'0 0.0
2014-Jul-22 12:21N 43°31' E 007°02'0 0.0
2014-Jul-22 11:04N 43°31' E 007°02'0 0.0
2014-Jul-22 10:26N 43°31' E 007°02'2 2.6
2014-Jul-22 09:33N 43°33' E 007°01'0 0.0
2014-Jul-22 08:33N 43°33' E 007°01'0 0.0
2014-Jul-22 07:31N 43°33' E 007°01'0 0.0
2014-Jul-22 06:32N 43°33' E 007°01'0 0.0
2014-Jul-22 05:32N 43°33' E 007°01'0 0.0
2014-Jul-22 04:27N 43°33' E 007°01'0 0.0
2014-Jul-22 03:31N 43°33' E 007°01'0 0.0
2014-Jul-22 02:31N 43°33' E 007°01'0 0.0
2014-Jul-22 01:23N 43°33' E 007°01'0 0.0
2014-Jul-22 00:33N 43°33' E 007°01'0 0.0
2014-Jul-21 23:33N 43°33' E 007°01'0 0.0
2014-Jul-21 22:31N 43°33' E 007°01'0 0.0
2014-Jul-21 21:32N 43°33' E 007°01'0 0.0
2014-Jul-21 20:32N 43°33' E 007°01'0 0.0
2014-Jul-21 20:18N 43°33' E 007°01'0 0.0
2014-Jul-21 19:33N 43°33' E 007°01'0 0.0
2014-Jul-21 18:25N 43°33' E 007°01'0 0.0
2014-Jul-21 17:29N 43°33' E 007°01'0 0.4
2014-Jul-21 16:28N 43°32' E 007°01'0 0.0
2014-Jul-21 15:28N 43°32' E 007°01'0 0.0
2014-Jul-21 14:26N 43°32' E 007°01'4 4.3
2014-Jul-21 13:34N 43°30' E 007°05'1211.7
2014-Jul-21 12:33N 43°39' E 007°15'3 3.2
2014-Jul-21 11:32N 43°42' E 007°17'0 0.0
2014-Jul-21 10:27N 43°42' E 007°17'0 0.0
2014-Jul-21 09:22N 43°42' E 007°17'0 0.0
2014-Jul-21 08:28N 43°42' E 007°17'0 0.0
2014-Jul-21 07:29N 43°42' E 007°17'0 0.0
2014-Jul-21 06:30N 43°42' E 007°17'0 0.0
2014-Jul-21 05:24N 43°42' E 007°17'0 0.0
2014-Jul-21 04:31N 43°42' E 007°17'0 0.0
2014-Jul-21 03:32N 43°42' E 007°17'0 0.0
2014-Jul-21 02:32N 43°42' E 007°17'0 0.0
2014-Jul-21 01:33N 43°42' E 007°17'0 0.0
2014-Jul-21 00:28N 43°42' E 007°17'0 0.0
2014-Jul-20 23:28N 43°42' E 007°17'0 0.0
2014-Jul-20 22:23N 43°42' E 007°17'0 0.0
2014-Jul-20 21:12N 43°42' E 007°17'0 0.0
2014-Jul-20 20:24N 43°42' E 007°17'0 0.0
2014-Jul-20 19:31N 43°42' E 007°17'0 0.0
2014-Jul-20 18:32N 43°42' E 007°17'0 0.0
2014-Jul-20 17:32N 43°42' E 007°17'0 0.0
2014-Jul-20 16:09N 43°42' E 007°17'0 0.0
2014-Jul-20 15:28N 43°42' E 007°17'0 0.0
2014-Jul-20 14:28N 43°42' E 007°17'0 0.0
2014-Jul-20 13:23N 43°42' E 007°17'0 0.0
2014-Jul-20 12:33N 43°42' E 007°17'2 2.0
2014-Jul-20 11:21N 43°42' E 007°20'0 0.0
2014-Jul-20 05:28N 43°42' E 007°20'0 0.0
2014-Jul-20 02:27N 43°42' E 007°20'0 0.0
2014-Jul-20 01:33N 43°42' E 007°20'0 0.0
2014-Jul-20 00:22N 43°42' E 007°20'0 0.0
2014-Jul-19 23:23N 43°42' E 007°20'0 0.0
2014-Jul-19 22:18N 43°42' E 007°20'0 0.0
2014-Jul-19 21:30N 43°42' E 007°20'0 0.0
2014-Jul-19 20:31N 43°42' E 007°20'0 0.0
2014-Jul-19 19:08N 43°42' E 007°20'0 0.0
2014-Jul-19 18:20N 43°42' E 007°20'0 0.0
2014-Jul-19 17:21N 43°42' E 007°20'0 0.0
2014-Jul-19 15:25N 43°42' E 007°20'0 0.0
2014-Jul-19 14:29N 43°42' E 007°20'3 3.7
2014-Jul-19 13:33N 43°39' E 007°18'5 5.2
2014-Jul-19 12:29N 43°39' E 007°11'0 0.0
2014-Jul-19 11:18N 43°39' E 007°11'0 0.0
2014-Jul-19 10:33N 43°39' E 007°11'0 0.0
2014-Jul-19 09:34N 43°39' E 007°11'6 5.4
2014-Jul-19 08:33N 43°39' E 007°18'7 2.4
2014-Jul-19 05:30N 43°44' E 007°25'0 0.0
2014-Jul-18 22:17N 43°44' E 007°25'0 0.0
2014-Jul-18 17:11N 43°44' E 007°25'0 0.0
2014-Jul-18 16:33N 43°44' E 007°25'0 0.0
2014-Jul-18 09:05N 43°44' E 007°25'0 0.0
2014-Jul-18 05:11N 43°44' E 007°26'4 5.6
2014-Jul-18 04:27N 43°41' E 007°29'1213.5
2014-Jul-18 03:33N 43°30' E 007°37'1413.7
2014-Jul-18 02:33N 43°18' E 007°46'1413.7
2014-Jul-18 01:34N 43°07' E 007°56'1413.6
2014-Jul-18 00:33N 42°55' E 008°05'1513.7
2014-Jul-17 23:26N 42°41' E 008°16'  

Dump ship's entire track history